sensor_id;sensor_type;location;lat;lon;timestamp;pressure;altitude;pressure_sealevel;temperature;humidity
5595;BME280;1003;48.002;7.788;2023-11-21T00:00:07;98505.69;;;9.23;100.00
5595;BME280;1003;48.002;7.788;2023-11-21T00:02:38;98504.91;;;9.21;100.00
5595;BME280;1003;48.002;7.788;2023-11-21T00:05:06;98496.59;;;9.17;100.00
5595;BME280;1003;48.002;7.788;2023-11-21T00:07:33;98495.72;;;9.18;100.00
5595;BME280;1003;48.002;7.788;2023-11-21T00:10:01;98488.97;;;9.24;100.00
5595;BME280;1003;48.002;7.788;2023-11-21T00:12:28;98491.47;;;9.24;100.00
5595;BME280;1003;48.002;7.788;2023-11-21T00:14:58;99018.06;;;9.22;100.00
5595;BME280;1003;48.002;7.788;2023-11-21T00:17:26;99012.25;;;9.15;100.00
5595;BME280;1003;48.002;7.788;2023-11-21T00:19:53;99022.28;;;9.17;100.00
5595;BME280;1003;48.002;7.788;2023-11-21T00:22:20;99023.94;;;9.13;100.00
5595;BME280;1003;48.002;7.788;2023-11-21T00:24:47;99030.66;;;9.11;100.00
5595;BME280;1003;48.002;7.788;2023-11-21T00:27:15;99041.53;;;9.09;100.00
5595;BME280;1003;48.002;7.788;2023-11-21T00:29:42;99047.31;;;9.18;100.00
5595;BME280;1003;48.002;7.788;2023-11-21T00:32:10;99050.72;;;9.13;100.00
5595;BME280;1003;48.002;7.788;2023-11-21T00:34:38;99048.25;;;9.04;100.00
5595;BME280;1003;48.002;7.788;2023-11-21T00:37:06;99059.97;;;9.05;100.00
5595;BME280;1003;48.002;7.788;2023-11-21T00:39:33;99056.63;;;9.04;100.00
5595;BME280;1003;48.002;7.788;2023-11-21T00:42:01;99060.00;;;9.00;100.00
5595;BME280;1003;48.002;7.788;2023-11-21T00:44:28;99070.84;;;9.01;100.00
5595;BME280;1003;48.002;7.788;2023-11-21T00:46:55;99075.06;;;8.92;100.00
5595;BME280;1003;48.002;7.788;2023-11-21T00:49:24;99095.09;;;8.97;100.00
5595;BME280;1003;48.002;7.788;2023-11-21T00:51:51;99089.25;;;8.97;100.00
5595;BME280;1003;48.002;7.788;2023-11-21T00:54:18;99101.78;;;8.97;100.00
5595;BME280;1003;48.002;7.788;2023-11-21T00:56:46;99108.47;;;8.96;100.00
5595;BME280;1003;48.002;7.788;2023-11-21T00:59:14;99114.31;;;9.00;100.00
5595;BME280;1003;48.002;7.788;2023-11-21T01:01:41;99123.47;;;8.98;100.00
5595;BME280;1003;48.002;7.788;2023-11-21T01:04:08;99132.66;;;9.03;100.00
5595;BME280;1003;48.002;7.788;2023-11-21T01:06:37;99136.03;;;8.93;100.00
5595;BME280;1003;48.002;7.788;2023-11-21T01:09:05;99147.75;;;8.99;100.00
5595;BME280;1003;48.002;7.788;2023-11-21T01:11:34;99141.88;;;8.98;100.00
5595;BME280;1003;48.002;7.788;2023-11-21T01:14:03;99144.38;;;9.04;100.00
5595;BME280;1003;48.002;7.788;2023-11-21T01:16:32;99137.72;;;8.94;100.00
5595;BME280;1003;48.002;7.788;2023-11-21T01:18:59;99141.03;;;8.93;100.00
5595;BME280;1003;48.002;7.788;2023-11-21T01:21:27;99145.28;;;8.82;100.00
5595;BME280;1003;48.002;7.788;2023-11-21T01:23:56;99156.94;;;8.87;100.00
5595;BME280;1003;48.002;7.788;2023-11-21T01:26:23;99152.81;;;8.80;100.00
5595;BME280;1003;48.002;7.788;2023-11-21T01:28:50;99159.50;;;8.80;100.00
5595;BME280;1003;48.002;7.788;2023-11-21T01:31:18;99159.50;;;8.83;100.00
5595;BME280;1003;48.002;7.788;2023-11-21T01:33:46;99166.13;;;8.87;100.00
5595;BME280;1003;48.002;7.788;2023-11-21T01:36:13;99167.81;;;8.86;100.00
5595;BME280;1003;48.002;7.788;2023-11-21T01:38:41;99166.13;;;8.91;100.00
5595;BME280;1003;48.002;7.788;2023-11-21T01:41:09;99165.31;;;8.89;100.00
5595;BME280;1003;48.002;7.788;2023-11-21T01:43:37;99164.47;;;8.89;100.00
5595;BME280;1003;48.002;7.788;2023-11-21T01:46:04;99160.31;;;8.89;100.00
5595;BME280;1003;48.002;7.788;2023-11-21T01:48:33;99152.78;;;8.89;100.00
5595;BME280;1003;48.002;7.788;2023-11-21T01:51:01;99141.09;;;8.88;100.00
5595;BME280;1003;48.002;7.788;2023-11-21T01:53:29;99133.63;;;8.78;100.00
5595;BME280;1003;48.002;7.788;2023-11-21T01:55:57;99144.50;;;8.72;100.00
5595;BME280;1003;48.002;7.788;2023-11-21T01:58:27;99145.31;;;8.70;100.00
5595;BME280;1003;48.002;7.788;2023-11-21T02:00:54;99146.16;;;8.68;100.00
5595;BME280;1003;48.002;7.788;2023-11-21T02:03:21;99146.97;;;8.74;100.00
5595;BME280;1003;48.002;7.788;2023-11-21T02:05:49;99147.81;;;8.79;100.00
5595;BME280;1003;48.002;7.788;2023-11-21T02:08:16;99145.28;;;8.80;100.00
5595;BME280;1003;48.002;7.788;2023-11-21T02:10:45;99136.09;;;8.84;100.00
5595;BME280;1003;48.002;7.788;2023-11-21T02:13:13;99131.06;;;8.88;100.00
5595;BME280;1003;48.002;7.788;2023-11-21T02:15:43;99126.88;;;8.89;100.00
5595;BME280;1003;48.002;7.788;2023-11-21T02:18:11;99122.72;;;8.88;100.00
5595;BME280;1003;48.002;7.788;2023-11-21T02:20:39;99116.84;;;8.90;100.00
5595;BME280;1003;48.002;7.788;2023-11-21T02:23:09;99112.66;;;8.94;100.00
5595;BME280;1003;48.002;7.788;2023-11-21T02:25:36;99104.34;;;8.89;100.00
5595;BME280;1003;48.002;7.788;2023-11-21T02:28:04;99090.13;;;8.88;100.00
5595;BME280;1003;48.002;7.788;2023-11-21T02:30:33;99091.81;;;8.81;100.00
5595;BME280;1003;48.002;7.788;2023-11-21T02:33:01;99081.75;;;8.87;100.00
5595;BME280;1003;48.002;7.788;2023-11-21T02:35:28;99074.28;;;8.83;100.00
5595;BME280;1003;48.002;7.788;2023-11-21T02:37:57;99062.56;;;8.82;100.00
5595;BME280;1003;48.002;7.788;2023-11-21T02:40:25;99072.56;;;8.86;100.00
5595;BME280;1003;48.002;7.788;2023-11-21T02:42:52;99049.22;;;8.83;100.00
5595;BME280;1003;48.002;7.788;2023-11-21T02:45:20;99061.72;;;8.89;100.00
5595;BME280;1003;48.002;7.788;2023-11-21T02:47:48;99056.75;;;8.83;100.00
5595;BME280;1003;48.002;7.788;2023-11-21T02:50:16;99051.72;;;8.77;100.00
5595;BME280;1003;48.002;7.788;2023-11-21T02:52:45;99050.06;;;8.79;100.00
5595;BME280;1003;48.002;7.788;2023-11-21T02:55:12;99036.75;;;8.72;100.00
5595;BME280;1003;48.002;7.788;2023-11-21T02:57:40;99030.09;;;8.68;100.00
5595;BME280;1003;48.002;7.788;2023-11-21T03:00:08;99038.44;;;8.64;100.00
5595;BME280;1003;48.002;7.788;2023-11-21T03:02:38;99028.38;;;8.75;100.00
5595;BME280;1003;48.002;7.788;2023-11-21T03:05:06;99029.22;;;8.74;100.00
5595;BME280;1003;48.002;7.788;2023-11-21T03:07:34;99023.41;;;8.68;100.00
5595;BME280;1003;48.002;7.788;2023-11-21T03:10:02;99025.06;;;8.70;100.00
5595;BME280;1003;48.002;7.788;2023-11-21T03:12:30;99015.03;;;8.73;100.00
5595;BME280;1003;48.002;7.788;2023-11-21T03:14:58;99021.69;;;8.75;100.00
5595;BME280;1003;48.002;7.788;2023-11-21T03:17:27;99021.66;;;8.80;100.00
5595;BME280;1003;48.002;7.788;2023-11-21T03:19:55;99011.66;;;8.77;100.00
5595;BME280;1003;48.002;7.788;2023-11-21T03:22:23;99006.66;;;8.74;100.00
5595;BME280;1003;48.002;7.788;2023-11-21T03:24:50;99004.16;;;8.74;100.00
5595;BME280;1003;48.002;7.788;2023-11-21T03:27:17;99006.66;;;8.74;100.00
5595;BME280;1003;48.002;7.788;2023-11-21T03:29:45;99007.50;;;8.73;100.00
5595;BME280;1003;48.002;7.788;2023-11-21T03:32:14;99005.81;;;8.75;100.00
5595;BME280;1003;48.002;7.788;2023-11-21T03:34:54;98999.16;;;8.74;100.00
5595;BME280;1003;48.002;7.788;2023-11-21T03:37:22;99000.81;;;8.75;100.00
5595;BME280;1003;48.002;7.788;2023-11-21T03:39:50;99005.81;;;8.72;100.00
5595;BME280;1003;48.002;7.788;2023-11-21T03:42:18;98996.66;;;8.74;100.00
5595;BME280;1003;48.002;7.788;2023-11-21T03:44:45;99003.28;;;8.76;100.00
5595;BME280;1003;48.002;7.788;2023-11-21T03:47:13;99006.66;;;8.78;100.00
5595;BME280;1003;48.002;7.788;2023-11-21T03:49:41;99007.44;;;8.82;100.00
5595;BME280;1003;48.002;7.788;2023-11-21T03:52:09;99013.28;;;8.84;100.00
5595;BME280;1003;48.002;7.788;2023-11-21T03:54:36;99007.44;;;8.82;100.00
5595;BME280;1003;48.002;7.788;2023-11-21T03:57:04;99006.66;;;8.74;100.00
5595;BME280;1003;48.002;7.788;2023-11-21T03:59:31;99009.16;;;8.75;100.00
5595;BME280;1003;48.002;7.788;2023-11-21T04:01:58;99009.22;;;8.67;100.00
5595;BME280;1003;48.002;7.788;2023-11-21T04:04:27;99011.72;;;8.64;100.00
5595;BME280;1003;48.002;7.788;2023-11-21T04:06:54;99012.53;;;8.68;100.00
5595;BME280;1003;48.002;7.788;2023-11-21T04:09:22;99012.59;;;8.57;100.00
5595;BME280;1003;48.002;7.788;2023-11-21T04:11:51;99014.31;;;8.43;100.00
5595;BME280;1003;48.002;7.788;2023-11-21T04:14:18;99016.81;;;8.45;100.00
5595;BME280;1003;48.002;7.788;2023-11-21T04:16:45;99024.34;;;8.41;100.00
5595;BME280;1003;48.002;7.788;2023-11-21T04:19:13;99034.38;;;8.40;100.00
5595;BME280;1003;48.002;7.788;2023-11-21T04:21:42;99033.53;;;8.43;100.00
5595;BME280;1003;48.002;7.788;2023-11-21T04:24:10;99052.72;;;8.45;100.00
5595;BME280;1003;48.002;7.788;2023-11-21T04:26:37;99063.56;;;8.50;100.00
5595;BME280;1003;48.002;7.788;2023-11-21T04:29:05;99067.72;;;8.48;100.00
5595;BME280;1003;48.002;7.788;2023-11-21T04:31:32;99075.25;;;8.44;100.00
5595;BME280;1003;48.002;7.788;2023-11-21T04:33:59;99090.28;;;8.48;100.00
5595;BME280;1003;48.002;7.788;2023-11-21T04:36:27;99093.63;;;8.47;100.00
5595;BME280;1003;48.002;7.788;2023-11-21T04:38:58;99106.13;;;8.53;100.00
5595;BME280;1003;48.002;7.788;2023-11-21T04:41:25;99120.31;;;8.54;100.00
5595;BME280;1003;48.002;7.788;2023-11-21T04:43:52;99122.00;;;8.49;100.00
5595;BME280;1003;48.002;7.788;2023-11-21T04:46:19;99127.84;;;8.47;100.00
5595;BME280;1003;48.002;7.788;2023-11-21T04:48:47;99135.38;;;8.47;100.00
5595;BME280;1003;48.002;7.788;2023-11-21T04:51:15;99152.06;;;8.52;100.00
5595;BME280;1003;48.002;7.788;2023-11-21T04:53:42;99155.41;;;8.48;100.00
5595;BME280;1003;48.002;7.788;2023-11-21T04:56:10;99161.22;;;8.49;100.00
5595;BME280;1003;48.002;7.788;2023-11-21T04:58:38;99175.44;;;8.56;100.00
5595;BME280;1003;48.002;7.788;2023-11-21T05:01:07;99177.94;;;8.48;100.00
5595;BME280;1003;48.002;7.788;2023-11-21T05:03:35;99178.78;;;8.50;100.00
5595;BME280;1003;48.002;7.788;2023-11-21T05:06:04;99182.94;;;8.48;100.00
5595;BME280;1003;48.002;7.788;2023-11-21T05:08:32;99195.47;;;8.51;100.00
5595;BME280;1003;48.002;7.788;2023-11-21T05:10:59;99207.16;;;8.52;100.00
5595;BME280;1003;48.002;7.788;2023-11-21T05:13:28;99210.50;;;8.54;100.00
5595;BME280;1003;48.002;7.788;2023-11-21T05:15:55;99215.50;;;8.56;100.00
5595;BME280;1003;48.002;7.788;2023-11-21T05:18:23;99227.19;;;8.55;100.00
5595;BME280;1003;48.002;7.788;2023-11-21T05:20:53;99231.38;;;8.58;100.00
5595;BME280;1003;48.002;7.788;2023-11-21T05:23:20;99241.38;;;8.62;100.00
5595;BME280;1003;48.002;7.788;2023-11-21T05:25:48;99253.09;;;8.62;100.00
5595;BME280;1003;48.002;7.788;2023-11-21T05:28:15;99256.41;;;8.62;100.00
5595;BME280;1003;48.002;7.788;2023-11-21T05:30:43;99257.25;;;8.52;100.00
5595;BME280;1003;48.002;7.788;2023-11-21T05:33:11;99268.13;;;8.42;100.00
5595;BME280;1003;48.002;7.788;2023-11-21T05:35:38;99269.78;;;8.37;100.00
5595;BME280;1003;48.002;7.788;2023-11-21T05:38:05;99269.72;;;8.34;100.00
5595;BME280;1003;48.002;7.788;2023-11-21T05:40:32;99279.75;;;8.26;100.00
5595;BME280;1003;48.002;7.788;2023-11-21T05:43:00;99290.63;;;8.25;100.00
5595;BME280;1003;48.002;7.788;2023-11-21T05:45:27;99303.13;;;8.21;100.00
5595;BME280;1003;48.002;7.788;2023-11-21T05:47:58;99312.28;;;8.15;100.00
5595;BME280;1003;48.002;7.788;2023-11-21T05:50:25;99332.31;;;8.17;100.00
5595;BME280;1003;48.002;7.788;2023-11-21T05:52:52;99346.50;;;8.12;100.00
5595;BME280;1003;48.002;7.788;2023-11-21T05:55:22;99359.84;;;8.11;100.00
5595;BME280;1003;48.002;7.788;2023-11-21T05:57:51;99384.06;;;8.16;100.00
5595;BME280;1003;48.002;7.788;2023-11-21T06:00:19;99385.75;;;8.22;100.00
5595;BME280;1003;48.002;7.788;2023-11-21T06:02:48;99403.28;;;8.21;100.00
5595;BME280;1003;48.002;7.788;2023-11-21T06:05:18;99407.44;;;8.15;100.00
5595;BME280;1003;48.002;7.788;2023-11-21T06:07:45;99420.75;;;8.10;100.00
5595;BME280;1003;48.002;7.788;2023-11-21T06:10:13;99424.09;;;8.07;100.00
5595;BME280;1003;48.002;7.788;2023-11-21T06:12:40;99433.25;;;8.05;100.00
5595;BME280;1003;48.002;7.788;2023-11-21T06:15:10;99444.94;;;8.03;100.00
5595;BME280;1003;48.002;7.788;2023-11-21T06:17:39;99458.28;;;8.07;100.00
5595;BME280;1003;48.002;7.788;2023-11-21T06:20:08;99468.31;;;8.08;100.00
5595;BME280;1003;48.002;7.788;2023-11-21T06:22:37;99479.16;;;8.10;100.00
5595;BME280;1003;48.002;7.788;2023-11-21T06:25:06;99490.00;;;8.03;100.00
5595;BME280;1003;48.002;7.788;2023-11-21T06:27:34;99507.47;;;8.00;100.00
5595;BME280;1003;48.002;7.788;2023-11-21T06:30:03;99515.03;;;8.06;100.00
5595;BME280;1003;48.002;7.788;2023-11-21T06:32:32;99445.78;;;8.05;100.00
5595;BME280;1003;48.002;7.788;2023-11-21T06:35:00;99445.75;;;8.07;100.00
5595;BME280;1003;48.002;7.788;2023-11-21T06:37:28;99453.31;;;8.10;100.00
5595;BME280;1003;48.002;7.788;2023-11-21T06:39:57;99455.78;;;8.04;100.00
5595;BME280;1003;48.002;7.788;2023-11-21T06:42:25;99465.81;;;8.10;100.00
5595;BME280;1003;48.002;7.788;2023-11-21T06:44:52;99479.97;;;8.03;100.00
5595;BME280;1003;48.002;7.788;2023-11-21T06:47:23;99481.66;;;8.06;100.00
5595;BME280;1003;48.002;7.788;2023-11-21T06:49:51;99496.63;;;8.01;100.00
5595;BME280;1003;48.002;7.788;2023-11-21T06:52:19;99501.69;;;8.07;100.00
5595;BME280;1003;48.002;7.788;2023-11-21T06:54:48;99504.19;;;8.06;100.00
5595;BME280;1003;48.002;7.788;2023-11-21T06:57:17;99510.84;;;8.04;100.00
5595;BME280;1003;48.002;7.788;2023-11-21T06:59:44;99511.69;;;8.04;100.00
5595;BME280;1003;48.002;7.788;2023-11-21T07:02:11;99528.38;;;8.04;100.00
5595;BME280;1003;48.002;7.788;2023-11-21T07:04:39;99543.38;;;8.04;100.00
5595;BME280;1003;48.002;7.788;2023-11-21T07:07:07;99559.28;;;8.09;100.00
5595;BME280;1003;48.002;7.788;2023-11-21T07:09:34;99567.63;;;8.09;100.00
5595;BME280;1003;48.002;7.788;2023-11-21T07:12:01;99567.63;;;8.11;100.00
5595;BME280;1003;48.002;7.788;2023-11-21T07:14:31;99570.97;;;8.11;100.00
5595;BME280;1003;48.002;7.788;2023-11-21T07:16:58;99586.00;;;8.14;100.00
5595;BME280;1003;48.002;7.788;2023-11-21T07:19:25;99591.06;;;8.21;100.00
5595;BME280;1003;48.002;7.788;2023-11-21T07:21:52;99602.78;;;8.25;100.00
5595;BME280;1003;48.002;7.788;2023-11-21T07:24:20;99603.59;;;8.27;100.00
5595;BME280;1003;48.002;7.788;2023-11-21T07:26:48;99606.97;;;8.29;100.00
5595;BME280;1003;48.002;7.788;2023-11-21T07:29:15;99622.84;;;8.34;100.00
5595;BME280;1003;48.002;7.788;2023-11-21T07:31:44;99619.53;;;8.35;100.00
5595;BME280;1003;48.002;7.788;2023-11-21T07:34:11;99633.78;;;8.42;100.00
5595;BME280;1003;48.002;7.788;2023-11-21T07:36:38;99635.50;;;8.46;100.00
5595;BME280;1003;48.002;7.788;2023-11-21T07:39:06;99637.16;;;8.47;100.00
5595;BME280;1003;48.002;7.788;2023-11-21T07:41:33;99645.47;;;8.43;100.00
5595;BME280;1003;48.002;7.788;2023-11-21T07:44:00;99641.34;;;8.45;100.00
5595;BME280;1003;48.002;7.788;2023-11-21T07:46:28;99646.34;;;8.47;100.00
5595;BME280;1003;48.002;7.788;2023-11-21T07:48:56;99647.22;;;8.53;100.00
5595;BME280;1003;48.002;7.788;2023-11-21T07:51:24;99643.91;;;8.57;100.00
5595;BME280;1003;48.002;7.788;2023-11-21T07:53:51;99657.31;;;8.68;100.00
5595;BME280;1003;48.002;7.788;2023-11-21T07:56:18;99654.00;;;8.73;100.00
5595;BME280;1003;48.002;7.788;2023-11-21T07:58:45;99654.88;;;8.82;100.00
5595;BME280;1003;48.002;7.788;2023-11-21T08:01:12;99658.25;;;8.90;100.00
5595;BME280;1003;48.002;7.788;2023-11-21T08:03:40;99647.34;;;8.78;100.00
5595;BME280;1003;48.002;7.788;2023-11-21T08:06:09;99649.84;;;8.78;100.00
5595;BME280;1003;48.002;7.788;2023-11-21T08:08:36;99655.78;;;8.93;100.00
5595;BME280;1003;48.002;7.788;2023-11-21T08:11:04;99672.56;;;9.16;100.00
5595;BME280;1003;48.002;7.788;2023-11-21T08:13:31;99662.56;;;9.20;100.00
5595;BME280;1003;48.002;7.788;2023-11-21T08:15:58;99676.78;;;9.31;100.00
5595;BME280;1003;48.002;7.788;2023-11-21T08:18:29;99673.47;;;9.32;100.00
5595;BME280;1003;48.002;7.788;2023-11-21T08:20:56;99671.78;;;9.35;100.00
5595;BME280;1003;48.002;7.788;2023-11-21T08:23:25;99662.59;;;9.37;100.00
5595;BME280;1003;48.002;7.788;2023-11-21T08:25:54;99650.88;;;9.33;100.00
5595;BME280;1003;48.002;7.788;2023-11-21T08:28:22;99655.06;;;9.37;100.00
5595;BME280;1003;48.002;7.788;2023-11-21T08:30:52;99643.34;;;9.33;100.00
5595;BME280;1003;48.002;7.788;2023-11-21T08:33:20;99632.47;;;9.36;100.00
5595;BME280;1003;48.002;7.788;2023-11-21T08:35:47;99619.94;;;9.40;100.00
5595;BME280;1003;48.002;7.788;2023-11-21T08:38:14;99626.66;;;9.48;100.00
5595;BME280;1003;48.002;7.788;2023-11-21T08:40:43;99616.63;;;9.63;100.00
5595;BME280;1003;48.002;7.788;2023-11-21T08:43:10;99604.09;;;9.78;100.00
5595;BME280;1003;48.002;7.788;2023-11-21T08:45:38;99604.09;;;9.92;100.00
5595;BME280;1003;48.002;7.788;2023-11-21T08:48:05;99594.06;;;9.77;100.00
5595;BME280;1003;48.002;7.788;2023-11-21T08:50:33;99582.31;;;9.92;100.00
5595;BME280;1003;48.002;7.788;2023-11-21T08:53:00;99568.09;;;10.07;100.00
5595;BME280;1003;48.002;7.788;2023-11-21T08:55:27;99624.13;;;10.16;100.00
5595;BME280;1003;48.002;7.788;2023-11-21T08:57:55;99610.75;;;10.16;100.00
5595;BME280;1003;48.002;7.788;2023-11-21T09:00:24;99585.66;;;10.23;100.00
5595;BME280;1003;48.002;7.788;2023-11-21T09:02:51;99573.03;;;10.42;100.00
5595;BME280;1003;48.002;7.788;2023-11-21T09:05:18;99561.22;;;10.68;100.00
5595;BME280;1003;48.002;7.788;2023-11-21T09:07:46;99537.81;;;10.54;100.00
5595;BME280;1003;48.002;7.788;2023-11-21T09:10:14;99516.88;;;10.49;100.00
5595;BME280;1003;48.002;7.788;2023-11-21T09:12:41;99503.50;;;10.47;100.00
5595;BME280;1003;48.002;7.788;2023-11-21T09:15:10;99477.56;;;10.40;100.00
5595;BME280;1003;48.002;7.788;2023-11-21T09:17:38;99457.50;;;10.34;100.00
5595;BME280;1003;48.002;7.788;2023-11-21T09:20:07;99436.56;;;10.31;100.00
5595;BME280;1003;48.002;7.788;2023-11-21T09:22:36;99413.16;;;10.19;100.00
5595;BME280;1003;48.002;7.788;2023-11-21T09:25:04;99392.25;;;10.10;100.00
5595;BME280;1003;48.002;7.788;2023-11-21T09:27:38;99388.91;;;10.12;100.00
5595;BME280;1003;48.002;7.788;2023-11-21T09:30:07;99373.84;;;10.06;100.00
5595;BME280;1003;48.002;7.788;2023-11-21T09:32:38;99370.47;;;10.18;100.00
5595;BME280;1003;48.002;7.788;2023-11-21T09:35:06;99367.09;;;10.30;100.00
5595;BME280;1003;48.002;7.788;2023-11-21T09:37:34;99361.13;;;10.46;100.00
5595;BME280;1003;48.002;7.788;2023-11-21T09:40:04;99356.13;;;10.40;100.00
5595;BME280;1003;48.002;7.788;2023-11-21T09:42:40;99350.31;;;10.35;100.00
5595;BME280;1003;48.002;7.788;2023-11-21T09:45:19;99342.72;;;10.41;100.00
5595;BME280;1003;48.002;7.788;2023-11-21T09:47:52;99329.34;;;10.36;100.00
5595;BME280;1003;48.002;7.788;2023-11-21T09:50:25;99318.47;;;10.32;100.00
5595;BME280;1003;48.002;7.788;2023-11-21T09:53:03;99289.28;;;10.14;100.00
5595;BME280;1003;48.002;7.788;2023-11-21T09:55:37;99290.91;;;10.23;100.00
5595;BME280;1003;48.002;7.788;2023-11-21T09:58:07;99293.47;;;10.14;100.00
5595;BME280;1003;48.002;7.788;2023-11-21T10:00:40;99286.78;;;10.13;100.00
5595;BME280;1003;48.002;7.788;2023-11-21T10:03:09;99290.94;;;10.18;100.00
5595;BME280;1003;48.002;7.788;2023-11-21T10:05:37;99286.72;;;10.28;100.00
5595;BME280;1003;48.002;7.788;2023-11-21T10:08:08;99293.34;;;10.35;100.00
5595;BME280;1003;48.002;7.788;2023-11-21T10:10:37;99292.47;;;10.44;100.00
5595;BME280;1003;48.002;7.788;2023-11-21T10:13:11;99299.94;;;10.47;100.00
5595;BME280;1003;48.002;7.788;2023-11-21T10:15:43;99290.84;;;10.34;100.00
5595;BME280;1003;48.002;7.788;2023-11-21T10:18:22;99287.53;;;10.27;100.00
5595;BME280;1003;48.002;7.788;2023-11-21T10:20:51;99287.63;;;10.13;100.00
5595;BME280;1003;48.002;7.788;2023-11-21T10:23:19;99283.34;;;10.21;100.00
5595;BME280;1003;48.002;7.788;2023-11-21T10:25:47;99282.50;;;10.33;100.00
5595;BME280;1003;48.002;7.788;2023-11-21T10:28:14;99275.81;;;10.29;100.00
5595;BME280;1003;48.002;7.788;2023-11-21T10:30:41;99263.19;;;10.35;100.00
5595;BME280;1003;48.002;7.788;2023-11-21T10:33:08;99253.97;;;10.39;100.00
5595;BME280;1003;48.002;7.788;2023-11-21T10:35:47;99248.97;;;10.33;100.00
5595;BME280;1003;48.002;7.788;2023-11-21T10:38:16;99227.94;;;10.46;100.00
5595;BME280;1003;48.002;7.788;2023-11-21T10:40:44;99253.75;;;10.63;100.00
5595;BME280;1003;48.002;7.788;2023-11-21T10:43:14;99267.16;;;10.62;100.00
5595;BME280;1003;48.002;7.788;2023-11-21T10:45:42;99276.25;;;10.77;100.00
5595;BME280;1003;48.002;7.788;2023-11-21T10:48:12;99268.00;;;10.63;100.00
5595;BME280;1003;48.002;7.788;2023-11-21T10:50:41;99242.91;;;10.58;100.00
5595;BME280;1003;48.002;7.788;2023-11-21T10:53:10;99232.28;;;10.29;100.00
5595;BME280;1003;48.002;7.788;2023-11-21T10:55:39;99229.78;;;10.22;100.00
5595;BME280;1003;48.002;7.788;2023-11-21T10:58:06;99232.38;;;10.10;100.00
5595;BME280;1003;48.002;7.788;2023-11-21T11:00:37;99249.19;;;10.02;100.00
5595;BME280;1003;48.002;7.788;2023-11-21T11:03:06;99250.78;;;10.09;100.00
5595;BME280;1003;48.002;7.788;2023-11-21T11:05:43;99259.19;;;10.07;100.00
5595;BME280;1003;48.002;7.788;2023-11-21T11:08:21;99259.19;;;10.05;100.00
5595;BME280;1003;48.002;7.788;2023-11-21T11:10:52;99256.78;;;9.90;100.00
5595;BME280;1003;48.002;7.788;2023-11-21T11:13:19;99260.16;;;9.84;100.00
5595;BME280;1003;48.002;7.788;2023-11-21T11:15:50;99260.16;;;9.90;100.00
5595;BME280;1003;48.002;7.788;2023-11-21T11:18:18;99259.31;;;9.88;100.00
5595;BME280;1003;48.002;7.788;2023-11-21T11:20:48;99266.84;;;9.84;100.00
5595;BME280;1003;48.002;7.788;2023-11-21T11:23:38;99265.16;;;9.90;100.00
5595;BME280;1003;48.002;7.788;2023-11-21T11:26:26;99281.72;;;10.17;100.00
5595;BME280;1003;48.002;7.788;2023-11-21T11:29:10;99285.88;;;10.20;100.00
5595;BME280;1003;48.002;7.788;2023-11-21T11:31:55;99282.63;;;10.06;100.00
5595;BME280;1003;48.002;7.788;2023-11-21T11:34:30;99275.19;;;9.92;100.00
5595;BME280;1003;48.002;7.788;2023-11-21T11:37:03;99281.09;;;9.82;100.00
5595;BME280;1003;48.002;7.788;2023-11-21T11:39:37;99285.22;;;9.96;100.00
5595;BME280;1003;48.002;7.788;2023-11-21T11:42:07;99283.53;;;9.94;100.00
5595;BME280;1003;48.002;7.788;2023-11-21T11:44:51;99293.50;;;10.08;100.00
5595;BME280;1003;48.002;7.788;2023-11-21T11:47:23;99286.09;;;9.83;100.00
5595;BME280;1003;48.002;7.788;2023-11-21T11:50:03;99287.72;;;9.95;100.00
5595;BME280;1003;48.002;7.788;2023-11-21T11:52:38;99294.44;;;9.93;100.00
5595;BME280;1003;48.002;7.788;2023-11-21T11:55:09;99307.81;;;9.92;100.00
5595;BME280;1003;48.002;7.788;2023-11-21T11:57:38;99308.69;;;9.88;100.00
5595;BME280;1003;48.002;7.788;2023-11-21T12:00:17;99313.69;;;9.89;100.00
5595;BME280;1003;48.002;7.788;2023-11-21T12:02:52;99307.94;;;9.66;100.00
5595;BME280;1003;48.002;7.788;2023-11-21T12:05:21;99298.72;;;9.72;100.00
5595;BME280;1003;48.002;7.788;2023-11-21T12:08:03;99289.50;;;9.76;100.00
5595;BME280;1003;48.002;7.788;2023-11-21T12:10:34;99289.59;;;9.56;100.00
5595;BME280;1003;48.002;7.788;2023-11-21T12:13:05;99300.44;;;9.60;100.00
5595;BME280;1003;48.002;7.788;2023-11-21T12:15:33;99313.75;;;9.77;100.00
5595;BME280;1003;48.002;7.788;2023-11-21T12:18:01;99312.88;;;9.90;100.00
5595;BME280;1003;48.002;7.788;2023-11-21T12:20:28;99329.41;;;10.22;100.00
5595;BME280;1003;48.002;7.788;2023-11-21T12:22:58;99340.28;;;10.30;100.00
5595;BME280;1003;48.002;7.788;2023-11-21T12:25:27;99336.03;;;10.37;100.00
5595;BME280;1003;48.002;7.788;2023-11-21T12:27:57;99336.72;;;10.62;100.00
5595;BME280;1003;48.002;7.788;2023-11-21T12:30:26;99336.50;;;10.88;100.00
5595;BME280;1003;48.002;7.788;2023-11-21T12:32:55;99331.47;;;10.85;100.00
5595;BME280;1003;48.002;7.788;2023-11-21T12:35:25;99322.19;;;10.93;100.00
5595;BME280;1003;48.002;7.788;2023-11-21T12:37:54;99313.06;;;10.83;100.00
5595;BME280;1003;48.002;7.788;2023-11-21T12:40:23;99303.84;;;10.80;100.00
5595;BME280;1003;48.002;7.788;2023-11-21T12:42:52;99303.28;;;10.49;100.00
5595;BME280;1003;48.002;7.788;2023-11-21T12:45:23;99306.78;;;10.27;100.00
5595;BME280;1003;48.002;7.788;2023-11-21T12:47:55;99305.84;;;10.44;100.00
5595;BME280;1003;48.002;7.788;2023-11-21T12:50:24;99302.41;;;10.55;100.00
5595;BME280;1003;48.002;7.788;2023-11-21T12:52:59;99301.78;;;10.20;100.00
5595;BME280;1003;48.002;7.788;2023-11-21T12:55:30;99298.41;;;10.31;100.00
5595;BME280;1003;48.002;7.788;2023-11-21T12:58:00;99299.06;;;10.56;100.00
5595;BME280;1003;48.002;7.788;2023-11-21T13:00:37;99301.59;;;10.52;100.00
5595;BME280;1003;48.002;7.788;2023-11-21T13:03:07;99284.13;;;10.36;100.00
5595;BME280;1003;48.002;7.788;2023-11-21T13:05:37;99282.47;;;10.32;100.00
5595;BME280;1003;48.002;7.788;2023-11-21T13:08:07;99281.66;;;10.22;100.00
5595;BME280;1003;48.002;7.788;2023-11-21T13:10:36;99280.84;;;10.20;100.00
5595;BME280;1003;48.002;7.788;2023-11-21T13:13:06;99279.31;;;10.00;100.00
5595;BME280;1003;48.002;7.788;2023-11-21T13:15:39;99290.16;;;10.09;100.00
5595;BME280;1003;48.002;7.788;2023-11-21T13:18:07;99290.16;;;10.04;100.00
5595;BME280;1003;48.002;7.788;2023-11-21T13:20:36;99296.84;;;10.10;100.00
5595;BME280;1003;48.002;7.788;2023-11-21T13:23:09;99294.41;;;9.96;100.00
5595;BME280;1003;48.002;7.788;2023-11-21T13:25:38;99298.53;;;10.08;100.00
5595;BME280;1003;48.002;7.788;2023-11-21T13:28:07;99310.19;;;10.18;100.00